Terminal Aerodrome Forecast
Issued by NWS

Home | Current Version | Previous Version | Text Only | Print | Product List | Glossary On
Versions: 1 2 3 4 5 6 7 8 9 10 11 12 13 14 15 16 17 18 19
044
FTUS43 KILX 211828 AAA
TAFDEC
TAF AMD
KDEC 211828Z 2118/2218 29013KT P6SM OVC100
     FM212000 32014G25KT P6SM VCSH OVC070
     FM212200 32013G21KT P6SM BKN100
     FM220400 33008KT P6SM SKC=

USA.gov is the U.S. government's official web portal to all federal, state and local government web resources and services.